Sukkur Weather



Sukkur's Current Weather

Temprature 31o haze

haze

Rain: 0 %

Min Temprature31o
Max Temprature31o
Humidity52
Wind Speed4.1 m/h
Sun Rise06:25:53
Sun Set17:53:26
Current Time: 18-Oct-2019 16:49:45
Lat/Lon: 27.7, 68.86




Sukkur's Geo Location



Sukkur's Weather Forecast

Time Overall Temp Min Temp Max Temp Humidity Wind Speed Rain
18-Oct-2019 (Fri)
17:00:00 clear sky 30.420 30.420 36.552 7 1.91 m/h 0 %
20:00:00 clear sky 24.240 24.240 28.843 11 4.3 m/h 0 %
23:00:00 clear sky 24.080 24.080 27.149 15 4.2 m/h 0 %
19-Oct-2019 (Sat)
02:00:00 clear sky 24.850 24.850 26.388 32 4.7 m/h 0 %
05:00:00 clear sky 25.128 25.128 25.128 40 4.8 m/h 0 %
08:00:00 clear sky 27.642 27.642 27.642 32 6.96 m/h 0 %
11:00:00 clear sky 34.300 34.300 34.300 20 5.41 m/h 0 %
14:00:00 clear sky 37.173 37.173 37.173 14 4.45 m/h 0 %
17:00:00 clear sky 35.654 35.654 35.654 13 3.67 m/h 0 %
20:00:00 clear sky 27.971 27.971 27.971 22 2.6 m/h 0 %
23:00:00 clear sky 26.144 26.144 26.144 25 1.1 m/h 0 %
20-Oct-2019 (Sun)
02:00:00 broken clouds 25.387 25.387 25.387 26 2.64 m/h 0 %
05:00:00 scattered clouds 24.498 24.498 24.498 29 3.02 m/h 0 %
08:00:00 clear sky 27.564 27.564 27.564 27 4.01 m/h 0 %
11:00:00 clear sky 34.790 34.790 34.790 16 2.7 m/h 0 %
14:00:00 clear sky 38.033 38.033 38.033 11 0.91 m/h 0 %
17:00:00 clear sky 35.751 35.751 35.751 12 0.55 m/h 0 %
20:00:00 clear sky 28.483 28.483 28.483 18 2.25 m/h 0 %
23:00:00 clear sky 26.099 26.099 26.099 22 0.32 m/h 0 %
21-Oct-2019 (Mon)
02:00:00 clear sky 25.566 25.566 25.566 22 0.63 m/h 0 %
05:00:00 clear sky 24.247 24.247 24.247 23 1.11 m/h 0 %
08:00:00 clear sky 28.242 28.242 28.242 18 1.08 m/h 0 %
11:00:00 clear sky 36.435 36.435 36.435 10 2.26 m/h 0 %
14:00:00 clear sky 38.148 38.148 38.148 8 2.78 m/h 0 %
17:00:00 clear sky 36.304 36.304 36.304 9 2.57 m/h 0 %
20:00:00 clear sky 28.933 28.933 28.933 15 2.76 m/h 0 %
23:00:00 clear sky 26.024 26.024 26.024 19 0.49 m/h 0 %
22-Oct-2019 (Tue)
02:00:00 clear sky 25.272 25.272 25.272 21 2 m/h 0 %
05:00:00 clear sky 23.746 23.746 23.746 26 1.67 m/h 0 %
08:00:00 clear sky 26.991 26.991 26.991 26 1.96 m/h 0 %
11:00:00 clear sky 35.835 35.835 35.835 13 2.51 m/h 0 %
14:00:00 clear sky 38.389 38.389 38.389 8 2.85 m/h 0 %
17:00:00 clear sky 36.439 36.439 36.439 8 3.47 m/h 0 %
20:00:00 clear sky 28.150 28.150 28.150 14 2.15 m/h 0 %
23:00:00 clear sky 27.442 27.442 27.442 16 1.11 m/h 0 %
23-Oct-2019 (Wed)
02:00:00 clear sky 24.945 24.945 24.945 20 0.91 m/h 0 %
05:00:00 clear sky 23.728 23.728 23.728 21 2.19 m/h 0 %
08:00:00 clear sky 27.463 27.463 27.463 17 2.14 m/h 0 %
11:00:00 clear sky 36.804 36.804 36.804 8 4.17 m/h 0 %
14:00:00 clear sky 38.471 38.471 38.471 8 5.12 m/h 0 %

Famous Cities (61)